createdAt,value
2018-07-25T00:00:19.911Z,97872.75
2018-07-25T00:02:48.507Z,97864.55
2018-07-25T00:05:17.099Z,97866.39
2018-07-25T00:07:45.653Z,97862.08
2018-07-25T00:10:14.258Z,97865.97
2018-07-25T00:12:43.044Z,97868.94
2018-07-25T00:15:11.746Z,97870.10
2018-07-25T00:17:40.507Z,97873.05
2018-07-25T00:20:09.179Z,97874.05
2018-07-25T00:22:37.974Z,97867.37
2018-07-25T00:25:06.647Z,97869.20
2018-07-25T00:27:35.390Z,97871.84
2018-07-25T00:30:04.364Z,97865.13
2018-07-25T00:32:34.343Z,97863.34
2018-07-25T00:35:03.094Z,97861.08
2018-07-25T00:37:31.679Z,97851.39
2018-07-25T00:40:00.728Z,97852.77
2018-07-25T00:42:29.365Z,97858.92
2018-07-25T00:44:58.108Z,97862.54
2018-07-25T00:47:27.539Z,97861.66
2018-07-25T00:49:56.814Z,97863.14
2018-07-25T00:52:25.392Z,97859.02
2018-07-25T00:54:54.039Z,97861.98
2018-07-25T00:57:22.648Z,97861.08
2018-07-25T00:59:51.317Z,97859.72
2018-07-25T01:02:19.884Z,97860.73
2018-07-25T01:04:51.269Z,97861.18
2018-07-25T01:07:19.963Z,97864.71
2018-07-25T01:09:48.567Z,97864.98
2018-07-25T01:12:17.837Z,97864.98
2018-07-25T01:14:46.424Z,97863.45
2018-07-25T01:17:15.053Z,97865.63
2018-07-25T01:19:43.730Z,97864.72
2018-07-25T01:22:12.477Z,97866.31
2018-07-25T01:24:41.153Z,97866.91
2018-07-25T01:27:09.920Z,97868.37
2018-07-25T01:29:38.550Z,97863.26
2018-07-25T01:32:07.349Z,97868.13
2018-07-25T01:34:36.237Z,97863.23
2018-07-25T01:37:04.948Z,97869.29
2018-07-25T01:39:33.553Z,97867.00
2018-07-25T01:42:02.456Z,97869.97
2018-07-25T01:44:31.792Z,97874.06
2018-07-25T01:47:00.480Z,97871.34
2018-07-25T01:49:30.097Z,97866.55
2018-07-25T01:51:58.887Z,97877.01
2018-07-25T01:54:27.548Z,97879.18
2018-07-25T01:56:56.430Z,97873.58
2018-07-25T01:59:28.103Z,97875.75
2018-07-25T02:01:58.358Z,97877.46
2018-07-25T02:04:27.388Z,97877.92
2018-07-25T02:06:56.010Z,97882.23
2018-07-25T02:09:24.836Z,97879.05
2018-07-25T02:11:53.445Z,97875.97
2018-07-25T02:14:22.201Z,97875.61
2018-07-25T02:16:50.844Z,97878.09
2018-07-25T02:19:20.366Z,97877.19
2018-07-25T02:21:48.979Z,97874.56
2018-07-25T02:24:17.693Z,97872.64
2018-07-25T02:26:46.693Z,97873.80
2018-07-25T02:29:15.345Z,97882.33
2018-07-25T02:31:43.940Z,97879.56
2018-07-25T02:34:17.888Z,97878.08
2018-07-25T02:36:47.234Z,97886.83
2018-07-25T02:39:15.889Z,97881.26
2018-07-25T02:41:45.264Z,97890.36
2018-07-25T02:44:14.391Z,97889.20
2018-07-25T02:46:43.108Z,97892.83
2018-07-25T02:49:11.758Z,97892.83
2018-07-25T02:51:40.508Z,97894.19
2018-07-25T02:54:09.888Z,97896.02
2018-07-25T02:56:38.468Z,97899.28
2018-07-25T02:59:07.238Z,97903.13
2018-07-25T03:01:36.170Z,97899.19
2018-07-25T03:04:04.801Z,97905.86
2018-07-25T03:06:34.288Z,97898.91
2018-07-25T03:09:04.145Z,97903.61
2018-07-25T03:11:32.670Z,97904.15
2018-07-25T03:14:01.625Z,97906.41
2018-07-25T03:16:30.320Z,97902.86
2018-07-25T03:18:58.911Z,97903.98
2018-07-25T03:21:27.529Z,97905.49
2018-07-25T03:23:56.111Z,97915.39
2018-07-25T03:26:24.771Z,97912.54
2018-07-25T03:28:53.487Z,97917.78
2018-07-25T03:31:22.317Z,97920.26
2018-07-25T03:33:50.947Z,97923.77
2018-07-25T03:36:19.628Z,97928.28
2018-07-25T03:38:48.186Z,97933.49
2018-07-25T03:41:16.832Z,97932.50
2018-07-25T03:43:45.490Z,97936.61
2018-07-25T03:46:14.229Z,97933.05
2018-07-25T03:48:42.907Z,97941.35
2018-07-25T03:51:11.612Z,97941.77
2018-07-25T03:53:40.227Z,97940.30
2018-07-25T03:56:08.937Z,97936.77
2018-07-25T03:58:39.166Z,97942.19
2018-07-25T04:01:08.420Z,97948.41
2018-07-25T04:03:37.293Z,97950.91
2018-07-25T04:06:05.923Z,97950.98
2018-07-25T04:08:34.736Z,97956.67
2018-07-25T04:11:03.438Z,97955.12
2018-07-25T04:13:32.157Z,97957.66
2018-07-25T04:16:00.783Z,97959.70
2018-07-25T04:18:29.397Z,97967.31
2018-07-25T04:20:58.042Z,97962.82
2018-07-25T04:23:27.439Z,97965.70
2018-07-25T04:25:56.129Z,97970.52
2018-07-25T04:28:24.760Z,97966.66
2018-07-25T04:30:54.068Z,97967.16
2018-07-25T04:33:22.723Z,97962.17
2018-07-25T04:35:51.364Z,97967.82
2018-07-25T04:38:20.540Z,97966.72
2018-07-25T04:40:49.208Z,97972.10
2018-07-25T04:43:17.983Z,97972.05
2018-07-25T04:45:46.645Z,97975.45
2018-07-25T04:48:15.462Z,97980.61
2018-07-25T04:50:44.172Z,97979.59
2018-07-25T04:53:12.904Z,97980.05
2018-07-25T04:55:42.206Z,97979.69
2018-07-25T04:58:11.580Z,97984.70
2018-07-25T05:00:40.346Z,97983.75
2018-07-25T05:03:08.984Z,97986.04
2018-07-25T05:05:38.170Z,97985.25
2018-07-25T05:08:06.943Z,97981.02
2018-07-25T05:10:35.585Z,97985.44
2018-07-25T05:13:05.011Z,97989.83
2018-07-25T05:15:33.720Z,97989.58
2018-07-25T05:18:02.339Z,97993.73
2018-07-25T05:20:30.900Z,97988.59
2018-07-25T05:22:59.624Z,97992.79
2018-07-25T05:25:28.346Z,97983.52
2018-07-25T05:27:57.159Z,97991.19
2018-07-25T05:30:25.966Z,97989.78
2018-07-25T05:32:54.658Z,97994.15
2018-07-25T05:35:23.316Z,97997.23
2018-07-25T05:37:52.690Z,97997.08
2018-07-25T05:40:21.376Z,97996.34
2018-07-25T05:42:50.114Z,98002.88
2018-07-25T05:45:18.785Z,98006.11
2018-07-25T05:47:47.464Z,98006.67
2018-07-25T05:50:16.221Z,98011.66
2018-07-25T05:52:44.875Z,98006.27
2018-07-25T05:55:13.706Z,98005.88
2018-07-25T05:57:42.371Z,97999.36
2018-07-25T06:00:11.267Z,98005.36
2018-07-25T06:02:40.682Z,98002.86
2018-07-25T06:05:09.910Z,98007.80
2018-07-25T06:07:38.626Z,98008.95
2018-07-25T06:10:07.359Z,98007.22
2018-07-25T06:12:36.070Z,98015.78
2018-07-25T06:15:05.335Z,98014.89
2018-07-25T06:17:33.915Z,98014.22
2018-07-25T06:20:02.557Z,98018.05
2018-07-25T06:22:31.252Z,98010.00
2018-07-25T06:24:59.926Z,98013.84
2018-07-25T06:27:28.732Z,98023.77
2018-07-25T06:29:57.441Z,98025.55
2018-07-25T06:32:26.237Z,98017.33
2018-07-25T06:34:55.482Z,98017.14
2018-07-25T06:37:24.796Z,98017.64
2018-07-25T06:39:54.096Z,98010.42
2018-07-25T06:42:22.792Z,98014.96
2018-07-25T06:44:51.437Z,98021.16
2018-07-25T06:47:20.125Z,98024.80
2018-07-25T06:49:48.910Z,98019.32
2018-07-25T06:52:18.175Z,98023.19
2018-07-25T06:54:46.940Z,98030.97
2018-07-25T06:57:15.591Z,98029.28
2018-07-25T06:59:44.351Z,98037.38
2018-07-25T07:02:13.043Z,98035.90
2018-07-25T07:04:41.637Z,98035.11
2018-07-25T07:07:10.415Z,98034.92
2018-07-25T07:09:39.780Z,98038.29
2018-07-25T07:12:08.605Z,98035.50
2018-07-25T07:14:37.176Z,98040.41
2018-07-25T07:17:05.799Z,98033.58
2018-07-25T07:19:34.644Z,98034.23
2018-07-25T07:22:03.946Z,98032.83
2018-07-25T07:24:32.675Z,98031.98
2018-07-25T07:27:01.322Z,98038.15
2018-07-25T07:29:29.957Z,98031.94
2018-07-25T07:31:58.712Z,98035.95
2018-07-25T07:34:27.337Z,98037.33
2018-07-25T07:36:56.118Z,98032.77
2018-07-25T07:39:24.912Z,98041.59
2018-07-25T07:41:53.610Z,98035.83
2018-07-25T07:44:22.920Z,98037.55
2018-07-25T07:46:52.504Z,98030.89
2018-07-25T07:49:21.270Z,98034.33
2018-07-25T07:51:50.016Z,98029.24
2018-07-25T07:54:18.821Z,98031.41
2018-07-25T07:56:47.466Z,98030.54
2018-07-25T07:59:16.282Z,98029.16
2018-07-25T08:01:44.913Z,98029.71
2018-07-25T08:04:14.387Z,98030.31
2018-07-25T08:06:43.005Z,98031.30
2018-07-25T08:09:13.306Z,98033.45
2018-07-25T08:11:42.631Z,98034.59
2018-07-25T08:14:11.373Z,98034.72
2018-07-25T08:16:40.876Z,98034.94
2018-07-25T08:19:11.494Z,98026.76
2018-07-25T08:21:40.235Z,98035.25
2018-07-25T08:24:09.027Z,98032.75
2018-07-25T08:26:37.831Z,98029.48
2018-07-25T08:29:06.952Z,98028.89
2018-07-25T08:31:36.413Z,98033.31
2018-07-25T08:34:05.026Z,98034.70
2018-07-25T08:36:33.686Z,98024.94
2018-07-25T08:39:02.328Z,98024.34
2018-07-25T08:41:31.218Z,98023.55
2018-07-25T08:44:00.195Z,98028.45
2018-07-25T08:46:28.841Z,98027.84
2018-07-25T08:48:57.505Z,98028.98
2018-07-25T08:51:26.161Z,98026.80
2018-07-25T08:53:54.926Z,98027.70
2018-07-25T08:56:23.590Z,98025.51
2018-07-25T08:58:53.201Z,98029.36
2018-07-25T09:01:21.912Z,98024.27
2018-07-25T09:03:50.637Z,98019.80
2018-07-25T09:06:19.375Z,98029.91
2018-07-25T09:08:48.031Z,98022.77
2018-07-25T09:11:20.827Z,98019.99
2018-07-25T09:13:49.438Z,98031.05
2018-07-25T09:16:18.235Z,98028.17
2018-07-25T09:18:47.603Z,98016.80
2018-07-25T09:21:16.811Z,98017.63
2018-07-25T09:23:45.559Z,98012.30
2018-07-25T09:26:14.218Z,98024.36
2018-07-25T09:28:42.870Z,98018.59
2018-07-25T09:31:11.613Z,98016.56
2018-07-25T09:33:40.425Z,98013.48
2018-07-25T09:36:09.152Z,98012.79
2018-07-25T09:38:38.637Z,98012.56
2018-07-25T09:41:07.469Z,98011.97
2018-07-25T09:43:35.992Z,98011.22
2018-07-25T09:46:04.748Z,98012.95
2018-07-25T09:48:33.390Z,98010.69
2018-07-25T09:51:02.004Z,98006.59
2018-07-25T09:53:30.732Z,98001.86
2018-07-25T09:55:59.371Z,98003.66
2018-07-25T09:58:28.354Z,97989.53
2018-07-25T10:00:57.187Z,97994.27
2018-07-25T10:03:26.535Z,97990.32
2018-07-25T10:05:55.477Z,97990.66
2018-07-25T10:08:24.185Z,97989.37
2018-07-25T10:10:53.508Z,97989.89
2018-07-25T10:13:22.171Z,97984.03
2018-07-25T10:15:50.868Z,97985.06
2018-07-25T10:18:19.613Z,97987.30
2018-07-25T10:20:48.394Z,97979.06
2018-07-25T10:23:17.559Z,97978.91
2018-07-25T10:25:46.840Z,97980.98
2018-07-25T10:28:15.526Z,97969.90
2018-07-25T10:30:44.302Z,97968.89
2018-07-25T10:33:13.599Z,97967.80
2018-07-25T10:35:42.391Z,97974.95
2018-07-25T10:38:11.046Z,97964.80
2018-07-25T10:40:39.649Z,97960.37
2018-07-25T10:43:08.381Z,97962.70
2018-07-25T10:45:37.968Z,97966.59
2018-07-25T10:48:06.752Z,97955.45
2018-07-25T10:50:36.132Z,97948.56
2018-07-25T10:53:04.931Z,97948.83
2018-07-25T10:55:33.594Z,97946.84
2018-07-25T10:59:35.084Z,97930.35
2018-07-25T11:02:03.842Z,97931.55
2018-07-25T11:04:32.686Z,97925.20
2018-07-25T11:07:01.366Z,97923.66
2018-07-25T11:09:30.443Z,97921.87
2018-07-25T11:11:59.648Z,97907.51
2018-07-25T11:14:28.422Z,97902.92
2018-07-25T11:16:57.185Z,97912.29
2018-07-25T11:19:26.012Z,97907.72
2018-07-25T11:21:54.693Z,97908.36
2018-07-25T11:24:23.308Z,97904.50
2018-07-25T11:26:51.963Z,97898.03
2018-07-25T11:29:21.453Z,97897.25
2018-07-25T11:31:50.290Z,97893.36
2018-07-25T11:34:19.149Z,97893.52
2018-07-25T11:36:47.883Z,97892.39
2018-07-25T11:39:16.686Z,97888.30
2018-07-25T11:41:45.418Z,97889.69
2018-07-25T11:44:14.228Z,97894.13
2018-07-25T11:46:43.007Z,97885.72
2018-07-25T11:49:11.713Z,97882.61
2018-07-25T11:51:40.400Z,97883.08
2018-07-25T11:54:09.203Z,97879.77
2018-07-25T11:56:37.947Z,97879.38
2018-07-25T11:59:07.247Z,97879.55
2018-07-25T12:01:36.308Z,97884.39
2018-07-25T12:04:04.997Z,97876.03
2018-07-25T12:06:34.879Z,97873.52
2018-07-25T12:09:04.017Z,97875.89
2018-07-25T12:11:33.054Z,97871.32
2018-07-25T12:14:01.706Z,97875.83
2018-07-25T12:16:30.536Z,97882.02
2018-07-25T12:18:59.325Z,97872.91
2018-07-25T12:25:16.832Z,97863.63
2018-07-25T12:27:45.563Z,97860.14
2018-07-25T12:30:14.397Z,97853.89
2018-07-25T12:32:43.063Z,97857.11
2018-07-25T12:35:11.825Z,97852.25
2018-07-25T12:37:40.475Z,97853.89
2018-07-25T12:40:09.768Z,97857.41
2018-07-25T12:42:38.557Z,97850.11
2018-07-25T12:45:07.295Z,97851.56
2018-07-25T12:47:36.077Z,97845.74
2018-07-25T12:50:05.018Z,97851.79
2018-07-25T12:52:33.877Z,97841.53
2018-07-25T12:55:02.562Z,97845.30
2018-07-25T12:57:31.299Z,97833.95
2018-07-25T13:00:00.059Z,97836.84
2018-07-25T13:02:28.817Z,97837.69
2018-07-25T13:04:58.137Z,97838.62
2018-07-25T13:07:26.822Z,97842.27
2018-07-25T13:09:55.514Z,97833.47
2018-07-25T13:12:24.202Z,97826.69
2018-07-25T13:14:52.892Z,97830.42
2018-07-25T13:17:21.548Z,97825.53
2018-07-25T13:19:50.308Z,97838.87
2018-07-25T13:22:18.939Z,97829.55
2018-07-25T13:24:47.758Z,97829.41
2018-07-25T13:27:17.178Z,97817.25
2018-07-25T13:29:45.813Z,97812.52
2018-07-25T13:32:14.482Z,97819.68
2018-07-25T13:34:43.877Z,97814.05
2018-07-25T13:37:12.757Z,97816.45
2018-07-25T13:39:41.638Z,97819.50
2018-07-25T13:42:10.823Z,97811.23
2018-07-25T13:44:39.629Z,97807.34
2018-07-25T13:47:08.294Z,97796.96
2018-07-25T13:49:37.019Z,97794.42
2018-07-25T13:52:05.730Z,97797.84
2018-07-25T13:54:34.432Z,97792.34
2018-07-25T13:57:03.064Z,97786.54
2018-07-25T13:59:31.700Z,97789.78
2018-07-25T14:02:01.240Z,97786.45
2018-07-25T14:04:30.267Z,97791.04
2018-07-25T14:06:58.972Z,97794.99
2018-07-25T14:09:27.642Z,97792.56
2018-07-25T14:11:56.338Z,97787.66
2018-07-25T14:14:25.317Z,97783.87
2018-07-25T14:16:53.974Z,97783.54
2018-07-25T14:19:22.594Z,97782.39
2018-07-25T14:21:51.425Z,97781.90
2018-07-25T14:24:20.245Z,97790.29
2018-07-25T14:26:49.174Z,97782.89
2018-07-25T14:29:17.813Z,97785.55
2018-07-25T14:31:46.467Z,97787.81
2018-07-25T14:34:15.170Z,97784.08
2018-07-25T14:36:43.754Z,97778.86
2018-07-25T14:39:12.852Z,97781.48
2018-07-25T14:41:41.917Z,97779.50
2018-07-25T14:44:11.149Z,97784.36
2018-07-25T14:46:39.855Z,97782.93
2018-07-25T14:49:08.419Z,97787.75
2018-07-25T14:51:37.073Z,97783.22
2018-07-25T14:54:05.741Z,97786.17
2018-07-25T14:56:34.394Z,97783.66
2018-07-25T14:59:03.067Z,97786.17
2018-07-25T15:01:31.734Z,97778.73
2018-07-25T15:04:01.098Z,97782.64
2018-07-25T15:06:29.893Z,97786.56
2018-07-25T15:09:00.388Z,97784.14
2018-07-25T15:11:29.354Z,97782.13
2018-07-25T15:13:58.123Z,97784.97
2018-07-25T15:16:27.491Z,97779.04
2018-07-25T15:18:56.096Z,97780.88
2018-07-25T15:21:25.379Z,97779.23
2018-07-25T15:23:59.143Z,97776.89
2018-07-25T15:26:28.456Z,97775.28
2018-07-25T15:28:57.496Z,97776.75
2018-07-25T15:31:26.108Z,97770.86
2018-07-25T15:33:54.811Z,97769.82
2018-07-25T15:36:42.031Z,97770.00
2018-07-25T15:39:20.430Z,97769.32
2018-07-25T15:41:49.901Z,97771.47
2018-07-25T15:44:19.447Z,97763.48
2018-07-25T15:46:48.247Z,97755.75
2018-07-25T15:49:16.932Z,97761.45
2018-07-25T15:51:45.625Z,97758.95
2018-07-25T15:54:14.379Z,97752.01
2018-07-25T15:56:42.985Z,97745.94
2018-07-25T15:59:11.629Z,97755.41
2018-07-25T16:01:40.342Z,97752.92
2018-07-25T16:04:09.603Z,97753.67
2018-07-25T16:06:38.298Z,97757.40
2018-07-25T16:09:10.618Z,97758.75
2018-07-25T16:11:39.650Z,97760.25
2018-07-25T16:14:08.808Z,97757.57
2018-07-25T16:16:37.647Z,97761.82
2018-07-25T16:19:06.595Z,97758.62
2018-07-25T16:21:35.234Z,97763.14
2018-07-25T16:24:04.662Z,97753.73
2018-07-25T16:26:33.385Z,97743.83
2018-07-25T16:29:03.926Z,97737.39
2018-07-25T16:31:34.955Z,97744.44
2018-07-25T16:34:04.059Z,97738.18
2018-07-25T16:36:32.813Z,97739.34
2018-07-25T16:39:02.299Z,97739.59
2018-07-25T16:41:30.919Z,97738.80
2018-07-25T16:43:59.580Z,97740.09
2018-07-25T16:46:28.398Z,97740.64
2018-07-25T16:48:57.013Z,97743.30
2018-07-25T16:51:25.689Z,97756.27
2018-07-25T16:53:54.357Z,97776.60
2018-07-25T16:56:22.990Z,97783.91
2018-07-25T16:58:51.610Z,97789.48
2018-07-25T17:01:20.383Z,97791.39
2018-07-25T17:03:49.023Z,97787.92
2018-07-25T17:06:17.778Z,97780.30
2018-07-25T17:08:46.354Z,97782.86
2018-07-25T17:11:14.991Z,97781.08
2018-07-25T17:13:43.664Z,97777.00
2018-07-25T17:16:13.240Z,97772.17
2018-07-25T17:18:41.850Z,97770.14
2018-07-25T17:21:10.634Z,97762.15
2018-07-25T17:23:39.323Z,97764.03
2018-07-25T17:26:08.079Z,97757.46
2018-07-25T17:28:37.428Z,97760.07
2018-07-25T17:31:06.638Z,97766.14
2018-07-25T17:33:35.390Z,97776.50
2018-07-25T17:36:04.073Z,97772.69
2018-07-25T17:38:32.763Z,97774.45
2018-07-25T17:41:01.396Z,97775.42
2018-07-25T17:43:30.049Z,97777.61
2018-07-25T17:45:58.834Z,97784.32
2018-07-25T17:48:27.464Z,97788.16
2018-07-25T17:50:56.119Z,97792.97
2018-07-25T17:53:24.758Z,97796.27
2018-07-25T17:55:53.449Z,97803.02
2018-07-25T17:58:22.205Z,97792.98
2018-07-25T18:00:51.419Z,97794.38
2018-07-25T18:03:20.415Z,97799.39
2018-07-25T18:05:49.188Z,97790.44
2018-07-25T18:08:18.555Z,97798.33
2018-07-25T18:10:47.350Z,97791.39
2018-07-25T18:14:24.236Z,97791.83
2018-07-25T18:16:53.213Z,97799.84
2018-07-25T18:19:22.389Z,97801.08
2018-07-25T18:21:51.491Z,97800.53
2018-07-25T18:24:21.376Z,97807.31
2018-07-25T18:26:50.090Z,97805.84
2018-07-25T18:29:19.164Z,97795.02
2018-07-25T18:31:48.749Z,97805.46
2018-07-25T18:34:17.770Z,97799.77
2018-07-25T18:36:46.955Z,97798.41
2018-07-25T18:39:15.940Z,97796.13
2018-07-25T18:41:44.710Z,97792.58
2018-07-25T18:44:14.011Z,97802.87
2018-07-25T18:46:44.874Z,97806.58
2018-07-25T18:49:14.339Z,97804.94
2018-07-25T18:51:43.400Z,97810.44
2018-07-25T18:54:12.394Z,97809.78
2018-07-25T18:56:41.734Z,97814.54
2018-07-25T18:59:11.290Z,97814.08
2018-07-25T19:01:40.316Z,97812.16
2018-07-25T19:04:09.218Z,97815.02
2018-07-25T19:06:38.583Z,97817.86
2018-07-25T19:09:13.138Z,97823.87
2018-07-25T19:11:43.053Z,97822.58
2018-07-25T19:14:16.855Z,97822.34
2018-07-25T19:16:46.251Z,97820.58
2018-07-25T19:19:16.519Z,97830.70
2018-07-25T19:21:45.569Z,97832.68
2018-07-25T19:24:14.618Z,97822.92
2018-07-25T19:26:43.603Z,97830.61
2018-07-25T19:29:12.396Z,97840.90
2018-07-25T19:31:41.250Z,97845.28
2018-07-25T19:34:10.025Z,97841.73
2018-07-25T19:36:38.943Z,97842.16
2018-07-25T19:39:10.251Z,97849.08
2018-07-25T19:41:39.848Z,97847.48
2018-07-25T19:44:09.584Z,97851.67
2018-07-25T19:46:38.665Z,97851.69
2018-07-25T19:49:07.670Z,97856.03
2018-07-25T19:51:36.708Z,97857.58
2018-07-25T19:54:05.905Z,97854.55
2018-07-25T19:56:34.755Z,97852.77
2018-07-25T19:59:03.994Z,97861.84
2018-07-25T20:01:33.165Z,97859.17
2018-07-25T20:04:02.342Z,97855.83
2018-07-25T20:06:31.686Z,97852.09
2018-07-25T20:09:00.745Z,97863.25
2018-07-25T20:11:29.920Z,97864.99
2018-07-25T20:14:04.242Z,97858.09
2018-07-25T20:16:33.249Z,97859.83
2018-07-25T20:19:02.610Z,97858.77
2018-07-25T20:21:32.065Z,97863.08
2018-07-25T20:24:01.341Z,97864.23
2018-07-25T20:26:30.229Z,97866.81
2018-07-25T20:28:59.625Z,97874.28
2018-07-25T20:31:28.827Z,97878.42
2018-07-25T20:33:58.216Z,97869.82
2018-07-25T20:36:27.040Z,97881.07
2018-07-25T20:38:56.132Z,97881.57
2018-07-25T20:41:25.299Z,97883.34
2018-07-25T20:43:54.124Z,97883.94
2018-07-25T20:46:23.236Z,97882.13
2018-07-25T20:48:52.401Z,97885.45
2018-07-25T20:51:22.436Z,97888.55
2018-07-25T20:53:51.775Z,97898.36
2018-07-25T20:56:21.206Z,97901.11
2018-07-25T20:58:50.039Z,97895.08
2018-07-25T21:01:19.275Z,97889.77
2018-07-25T21:03:48.485Z,97900.86
2018-07-25T21:06:17.680Z,97894.38
2018-07-25T21:08:47.029Z,97899.48
2018-07-25T21:11:16.175Z,97902.12
2018-07-25T21:13:45.424Z,97898.05
2018-07-25T21:16:14.304Z,97898.42
2018-07-25T21:18:43.034Z,97904.23
2018-07-25T21:21:12.093Z,97909.47
2018-07-25T21:23:40.927Z,97910.96
2018-07-25T21:26:10.504Z,97909.83
2018-07-25T21:28:39.418Z,97910.47
2018-07-25T21:31:08.944Z,97911.18
2018-07-25T21:33:37.615Z,97903.83
2018-07-25T21:36:06.520Z,97905.72
2018-07-25T21:38:35.917Z,97903.19
2018-07-25T21:41:04.904Z,97909.94
2018-07-25T21:43:33.645Z,97908.89
2018-07-25T21:46:03.369Z,97914.20
2018-07-25T21:48:32.565Z,97918.20
2018-07-25T21:51:01.991Z,97912.37
2018-07-25T21:53:30.976Z,97916.00
2018-07-25T21:55:59.875Z,97914.52
2018-07-25T21:58:28.551Z,97919.06
2018-07-25T22:00:58.671Z,97916.84
2018-07-25T22:03:27.695Z,97915.55
2018-07-25T22:05:57.025Z,97916.24
2018-07-25T22:08:26.286Z,97911.43
2018-07-25T22:10:55.476Z,97913.41
2018-07-25T22:13:24.466Z,97911.39
2018-07-25T22:15:53.965Z,97909.17
2018-07-25T22:18:23.237Z,97910.66
2018-07-25T22:20:52.068Z,97909.73
2018-07-25T22:23:20.739Z,97906.67
2018-07-25T22:25:49.965Z,97906.92
2018-07-25T22:28:19.332Z,97905.47
2018-07-25T22:30:48.303Z,97905.71
2018-07-25T22:33:17.111Z,97907.08
2018-07-25T22:35:45.784Z,97909.83
2018-07-25T22:38:15.275Z,97904.20
2018-07-25T22:40:44.318Z,97914.67
2018-07-25T22:43:12.922Z,97914.77
2018-07-25T22:45:41.889Z,97911.73
2018-07-25T22:48:11.066Z,97910.45
2018-07-25T22:50:40.080Z,97905.99
2018-07-25T22:53:09.068Z,97911.53
2018-07-25T22:55:37.776Z,97921.51
2018-07-25T22:58:07.000Z,97918.19
2018-07-25T23:00:35.946Z,97922.67
2018-07-25T23:03:04.661Z,97921.15
2018-07-25T23:05:33.441Z,97920.28
2018-07-25T23:08:02.290Z,97919.28
2018-07-25T23:10:31.215Z,97923.73
2018-07-25T23:12:59.880Z,97923.21
2018-07-25T23:15:28.635Z,97929.34
2018-07-25T23:17:57.351Z,97932.88
2018-07-25T23:20:26.866Z,97930.78
2018-07-25T23:22:58.001Z,97934.94
2018-07-25T23:25:27.330Z,97928.72
2018-07-25T23:27:57.455Z,97925.55
2018-07-25T23:30:27.374Z,97930.69
2018-07-25T23:32:56.156Z,97929.55
2018-07-25T23:35:25.136Z,97923.47
2018-07-25T23:37:53.795Z,97923.36
2018-07-25T23:40:22.589Z,97926.72
2018-07-25T23:42:52.012Z,97919.49
2018-07-25T23:45:21.070Z,97916.99
2018-07-25T23:47:49.830Z,97911.77
2018-07-25T23:50:18.555Z,97906.06
2018-07-25T23:52:47.946Z,97911.73
2018-07-25T23:55:16.590Z,97913.47
2018-07-25T23:57:46.522Z,97912.91
